Time;durP1;ratioP1;P1;durP2;ratioP2;P2;SDS_P1;SDS_P2;PMS_P1;PMS_P2;Temp;Humidity;BMP_temperature;BMP_pressure;BME280_temperature;BME280_humidity;BME280_pressure;Samples;Min_cycle;Max_cycle;Signal;HPM_P1;HPM_P2
2022/03/19 00:02:22;;;;;;;0.20;0.20;;;7.90;99.90;;;;;;5025694;28;20271;-83
2022/03/19 00:04:48;;;;;;;0.10;0.10;;;8.00;99.90;;;;;;5025489;28;20221;-83
2022/03/19 00:07:14;;;;;;;0.73;0.73;;;7.90;99.90;;;;;;5024135;28;20213;-83
2022/03/19 00:09:41;;;;;;;0.13;0.13;;;7.90;99.90;;;;;;5026022;28;20213;-83
2022/03/19 00:12:08;;;;;;;0.20;0.20;;;7.90;99.90;;;;;;5026099;28;20207;-83
2022/03/19 00:14:33;;;;;;;0.77;0.77;;;7.90;99.90;;;;;;5025973;28;20187;-83
2022/03/19 00:16:59;;;;;;;0.80;0.50;;;7.90;99.90;;;;;;5024575;28;20198;-83
2022/03/19 00:19:25;;;;;;;0.10;0.10;;;7.90;99.90;;;;;;5026415;28;20190;-83
2022/03/19 00:21:51;;;;;;;0.30;0.30;;;7.90;99.90;;;;;;5027484;28;20534;-83
2022/03/19 00:24:16;;;;;;;0.03;0.03;;;7.80;99.90;;;;;;5024210;28;20206;-83
2022/03/19 00:26:42;;;;;;;2.70;0.80;;;7.80;99.90;;;;;;5024171;28;20190;-83
2022/03/19 00:29:08;;;;;;;0.27;0.27;;;7.80;99.90;;;;;;5026924;28;20186;-83
2022/03/19 00:31:34;;;;;;;0.33;0.33;;;7.80;99.90;;;;;;5023563;28;20182;-83
2022/03/19 00:34:00;;;;;;;0.10;0.10;;;7.70;99.90;;;;;;5023569;28;20244;-83
2022/03/19 00:36:27;;;;;;;0.13;0.13;;;7.70;99.90;;;;;;5033860;28;20270;-83
2022/03/19 00:38:54;;;;;;;0.10;0.10;;;7.90;99.90;;;;;;5023302;28;20205;-83
2022/03/19 00:41:20;;;;;;;0.20;0.20;;;7.80;99.90;;;;;;5025779;28;20184;-83
2022/03/19 00:43:46;;;;;;;0.20;0.20;;;7.70;99.90;;;;;;5023803;28;20206;-83
2022/03/19 00:46:12;;;;;;;0.53;0.10;;;7.80;99.90;;;;;;5024062;28;20191;-83
2022/03/19 00:48:38;;;;;;;0.60;0.60;;;7.80;99.90;;;;;;5024393;28;20217;-83
2022/03/19 00:51:03;;;;;;;1.17;0.30;;;7.80;99.90;;;;;;5026646;28;20825;-83
2022/03/19 00:53:29;;;;;;;0.50;0.50;;;7.80;99.90;;;;;;5025732;28;20198;-82
2022/03/19 00:55:54;;;;;;;1.40;0.17;;;7.80;99.90;;;;;;5025927;28;20320;-83
2022/03/19 00:58:20;;;;;;;1.77;0.47;;;7.80;99.90;;;;;;5025364;28;20710;-83
2022/03/19 01:00:45;;;;;;;0.20;0.20;;;7.80;99.90;;;;;;5025372;28;20821;-83
2022/03/19 01:03:11;;;;;;;0.50;0.20;;;7.80;99.90;;;;;;5026286;28;20482;-83
2022/03/19 01:05:37;;;;;;;0.10;0.10;;;7.80;99.90;;;;;;5022725;28;20668;-83
2022/03/19 01:08:03;;;;;;;0.40;0.40;;;7.90;99.90;;;;;;5025511;28;20225;-83
2022/03/19 01:10:29;;;;;;;0.10;0.10;;;7.90;99.90;;;;;;5027162;28;20207;-83
2022/03/19 01:12:57;;;;;;;0.33;0.33;;;7.90;99.90;;;;;;5026301;28;20289;-84
2022/03/19 01:15:23;;;;;;;0.30;0.30;;;7.80;99.90;;;;;;5026585;28;20634;-83
2022/03/19 01:17:49;;;;;;;0.40;0.33;;;7.80;99.90;;;;;;5025583;28;20194;-83
2022/03/19 01:20:16;;;;;;;0.10;0.10;;;7.80;99.90;;;;;;5026302;28;20247;-83
2022/03/19 01:22:43;;;;;;;0.40;0.40;;;7.80;99.90;;;;;;5023631;28;20215;-83
2022/03/19 01:25:10;;;;;;;0.30;0.30;;;7.80;99.90;;;;;;5024738;28;20194;-83
2022/03/19 01:27:37;;;;;;;0.10;0.10;;;7.90;99.90;;;;;;5028193;28;20583;-83
2022/03/19 01:30:06;;;;;;;0.37;0.30;;;8.00;99.90;;;;;;5025948;28;20191;-83
2022/03/19 01:32:33;;;;;;;0.67;0.67;;;8.00;99.90;;;;;;5024089;28;20214;-83
2022/03/19 01:34:58;;;;;;;0.07;0.07;;;7.90;99.90;;;;;;5021966;28;20194;-82
2022/03/19 01:37:24;;;;;;;0.20;0.20;;;8.00;99.90;;;;;;5027913;28;20750;-83
2022/03/19 01:39:53;;;;;;;0.47;0.47;;;7.90;99.90;;;;;;5027087;28;20186;-83
2022/03/19 01:42:24;;;;;;;0.53;0.53;;;7.90;99.90;;;;;;5030507;28;20277;-82
2022/03/19 01:44:50;;;;;;;1.70;0.57;;;7.80;99.90;;;;;;5026424;28;20199;-83
2022/03/19 01:47:15;;;;;;;0.20;0.20;;;7.90;99.90;;;;;;5028646;28;20245;-83
2022/03/19 01:49:41;;;;;;;0.17;0.17;;;7.80;99.90;;;;;;5028345;28;20190;-82
2022/03/19 01:52:07;;;;;;;0.97;0.30;;;7.80;99.90;;;;;;5028324;28;20232;-83
2022/03/19 01:54:36;;;;;;;0.10;0.10;;;7.80;99.90;;;;;;5028807;28;20284;-83
2022/03/19 01:57:02;;;;;;;0.33;0.33;;;7.80;99.90;;;;;;5030554;28;20303;-83
2022/03/19 01:59:34;;;;;;;1.13;0.40;;;7.80;99.90;;;;;;5028082;28;20222;-83
2022/03/19 02:02:01;;;;;;;0.63;0.60;;;7.80;99.90;;;;;;5032993;28;20252;-83
2022/03/19 02:04:27;;;;;;;0.10;0.10;;;7.80;99.90;;;;;;5029903;28;20178;-83
2022/03/19 02:06:54;;;;;;;1.63;0.80;;;7.80;99.90;;;;;;5032072;28;20197;-83
2022/03/19 02:09:20;;;;;;;0.20;0.20;;;7.70;99.90;;;;;;5032405;28;20202;-83
2022/03/19 02:11:46;;;;;;;0.30;0.30;;;7.70;99.90;;;;;;5031320;28;20741;-83
2022/03/19 02:14:12;;;;;;;1.20;1.03;;;7.70;99.90;;;;;;5029079;28;20186;-83
2022/03/19 02:16:39;;;;;;;0.20;0.20;;;7.80;99.90;;;;;;5028176;28;20194;-83
2022/03/19 02:19:05;;;;;;;0.20;0.20;;;7.70;99.90;;;;;;5033751;28;20183;-83
2022/03/19 02:21:43;;;;;;;0.10;0.10;;;7.70;99.90;;;;;;5031681;28;20201;-83
2022/03/19 02:26:55;;;;;;;0.43;0.43;;;7.70;99.90;;;;;;5032521;28;20225;-83
2022/03/19 02:29:21;;;;;;;0.10;0.10;;;7.70;99.90;;;;;;5030663;28;20186;-83
2022/03/19 02:31:50;;;;;;;0.77;0.77;;;7.60;99.90;;;;;;5030581;28;20271;-83
2022/03/19 02:34:15;;;;;;;3.87;1.27;;;7.60;99.90;;;;;;5031949;28;20194;-83
2022/03/19 02:36:41;;;;;;;0.23;0.23;;;7.70;99.90;;;;;;5027969;28;20179;-83
2022/03/19 02:39:12;;;;;;;0.87;0.47;;;7.60;99.90;;;;;;5031919;28;20310;-83
2022/03/19 02:41:51;;;;;;;0.03;0.03;;;7.60;99.90;;;;;;5032556;28;20316;-83
2022/03/19 02:44:19;;;;;;;0.77;0.77;;;7.60;99.90;;;;;;5029454;28;20195;-83
2022/03/19 02:46:50;;;;;;;0.10;0.10;;;7.60;99.90;;;;;;5028607;28;20200;-83
2022/03/19 02:49:17;;;;;;;0.47;0.47;;;7.60;99.90;;;;;;5030157;28;20186;-83
2022/03/19 02:51:44;;;;;;;0.23;0.23;;;7.60;99.90;;;;;;5030405;28;20233;-83
2022/03/19 02:54:12;;;;;;;0.50;0.30;;;7.50;99.90;;;;;;5030573;28;20191;-82
2022/03/19 02:56:40;;;;;;;4.70;1.13;;;7.60;99.90;;;;;;5032248;28;20731;-83
2022/03/19 02:59:09;;;;;;;0.50;0.50;;;7.50;99.90;;;;;;5030495;28;21427;-83
2022/03/19 03:01:35;;;;;;;2.17;0.77;;;7.60;99.90;;;;;;5034889;28;20221;-83
2022/03/19 03:04:02;;;;;;;0.43;0.43;;;7.50;99.90;;;;;;5034798;28;20256;-83
2022/03/19 03:06:28;;;;;;;0.10;0.10;;;7.50;99.90;;;;;;5032476;28;20313;-83
2022/03/19 03:08:54;;;;;;;0.70;0.70;;;7.40;99.90;;;;;;5034449;28;20257;-83
2022/03/19 03:11:20;;;;;;;0.67;0.53;;;7.40;99.90;;;;;;5032269;28;20193;-83
2022/03/19 03:13:45;;;;;;;0.70;0.43;;;7.50;99.90;;;;;;5033984;28;20206;-83
2022/03/19 03:16:11;;;;;;;1.03;0.30;;;7.40;99.90;;;;;;5033759;28;20195;-83
2022/03/19 03:18:38;;;;;;;0.90;0.83;;;7.40;99.90;;;;;;5042616;28;20199;-83
2022/03/19 03:21:03;;;;;;;0.57;0.57;;;7.40;99.90;;;;;;5040474;28;20202;-83
2022/03/19 03:23:31;;;;;;;0.40;0.40;;;7.40;99.90;;;;;;5039260;28;20218;-82
2022/03/19 03:25:57;;;;;;;1.40;0.60;;;7.40;99.90;;;;;;5040675;28;20193;-83
2022/03/19 03:28:22;;;;;;;0.60;0.60;;;7.40;99.90;;;;;;5040380;28;20274;-83
2022/03/19 03:30:48;;;;;;;0.43;0.30;;;7.40;99.90;;;;;;5040851;28;20293;-83
2022/03/19 03:33:14;;;;;;;1.17;0.83;;;7.50;99.90;;;;;;5031621;28;20213;-83
2022/03/19 03:35:39;;;;;;;0.17;0.17;;;7.40;99.90;;;;;;5027382;28;20275;-83
2022/03/19 03:38:05;;;;;;;4.93;0.47;;;7.40;99.90;;;;;;5029086;28;20256;-83
2022/03/19 03:40:30;;;;;;;3.83;0.53;;;7.40;99.90;;;;;;5028438;28;20217;-83
2022/03/19 03:42:56;;;;;;;0.27;0.20;;;7.40;99.90;;;;;;5029117;28;20206;-83
2022/03/19 03:45:22;;;;;;;1.10;0.27;;;7.30;99.90;;;;;;5028042;28;20194;-83
2022/03/19 03:47:47;;;;;;;0.17;0.17;;;7.40;99.90;;;;;;5029825;28;20191;-83
2022/03/19 03:50:13;;;;;;;0.33;0.20;;;7.30;99.90;;;;;;5029998;28;20559;-83
2022/03/19 03:52:39;;;;;;;0.20;0.20;;;7.30;99.90;;;;;;5028306;28;20201;-83
2022/03/19 03:55:06;;;;;;;0.13;0.13;;;7.30;99.90;;;;;;5029436;28;20233;-83
2022/03/19 03:57:34;;;;;;;0.53;0.53;;;7.30;99.90;;;;;;5025960;28;20225;-83
2022/03/19 04:00:04;;;;;;;0.23;0.23;;;7.20;99.90;;;;;;5027383;28;20188;-83
2022/03/19 04:02:30;;;;;;;0.60;0.60;;;7.30;99.90;;;;;;5024517;28;20210;-83
2022/03/19 04:04:55;;;;;;;0.77;0.73;;;7.30;99.90;;;;;;5024108;28;20688;-83
2022/03/19 04:07:21;;;;;;;0.40;0.40;;;7.30;99.90;;;;;;5022885;28;20631;-82
2022/03/19 04:09:47;;;;;;;0.80;0.80;;;7.20;99.90;;;;;;5015455;28;20568;-83
2022/03/19 04:12:14;;;;;;;0.30;0.30;;;7.30;99.90;;;;;;5017940;28;20211;-83
2022/03/19 04:14:40;;;;;;;0.30;0.30;;;7.30;99.90;;;;;;5015850;28;20187;-83
2022/03/19 04:17:06;;;;;;;0.07;0.07;;;7.20;99.90;;;;;;5017467;28;21152;-83
2022/03/19 04:19:32;;;;;;;1.17;0.70;;;7.20;99.90;;;;;;5016452;28;20187;-83
2022/03/19 04:21:57;;;;;;;0.20;0.20;;;7.20;99.90;;;;;;5022186;28;20205;-83
2022/03/19 04:24:23;;;;;;;0.47;0.30;;;7.20;99.90;;;;;;5023826;28;20189;-83
2022/03/19 04:26:48;;;;;;;0.40;0.33;;;7.20;99.90;;;;;;5023988;28;20189;-83
2022/03/19 04:29:14;;;;;;;0.30;0.30;;;7.20;99.90;;;;;;5025697;28;20213;-83
2022/03/19 04:31:39;;;;;;;0.10;0.10;;;7.20;99.90;;;;;;5023722;28;20182;-83
2022/03/19 04:34:05;;;;;;;0.10;0.10;;;7.10;99.90;;;;;;5025509;28;20202;-83
2022/03/19 04:36:30;;;;;;;0.20;0.20;;;7.10;99.90;;;;;;5023509;28;20183;-82
2022/03/19 04:39:02;;;;;;;0.10;0.10;;;7.00;99.90;;;;;;5024668;28;20178;-83
2022/03/19 04:41:28;;;;;;;0.57;0.53;;;7.00;99.90;;;;;;5022883;28;20845;-83
2022/03/19 04:43:54;;;;;;;2.90;0.60;;;7.00;99.90;;;;;;5023092;28;20206;-83
2022/03/19 04:46:20;;;;;;;7.83;0.77;;;7.00;99.90;;;;;;5023901;28;20271;-82
2022/03/19 04:48:46;;;;;;;0.20;0.20;;;7.00;99.90;;;;;;5026203;28;20325;-82
2022/03/19 04:51:16;;;;;;;0.47;0.47;;;6.90;99.90;;;;;;5023685;28;20269;-82
2022/03/19 04:53:42;;;;;;;0.10;0.10;;;6.90;99.90;;;;;;5024788;28;20213;-83
2022/03/19 04:56:08;;;;;;;0.20;0.20;;;6.90;99.90;;;;;;5023354;28;20190;-83
2022/03/19 04:58:35;;;;;;;1.73;1.60;;;6.90;99.90;;;;;;5022682;28;20660;-83
2022/03/19 05:01:02;;;;;;;0.53;0.53;;;6.80;99.90;;;;;;5024289;28;20190;-82
2022/03/19 05:03:27;;;;;;;1.50;0.10;;;6.90;99.90;;;;;;5021366;28;20306;-83
2022/03/19 05:05:53;;;;;;;0.00;0.00;;;7.00;99.90;;;;;;5021311;28;20281;-83
2022/03/19 05:08:18;;;;;;;0.03;0.03;;;6.90;99.90;;;;;;5023848;28;20206;-83
2022/03/19 05:13:28;;;;;;;1.80;0.20;;;6.90;99.90;;;;;;5024854;28;20205;-83
2022/03/19 05:15:54;;;;;;;0.10;0.10;;;6.80;99.90;;;;;;5023971;28;20856;-83
2022/03/19 05:18:20;;;;;;;0.93;0.93;;;6.70;99.90;;;;;;5023675;28;20221;-82
2022/03/19 05:20:46;;;;;;;0.17;0.17;;;6.70;99.90;;;;;;5023842;28;20190;-83
2022/03/19 05:23:12;;;;;;;0.10;0.10;;;6.80;99.90;;;;;;5021548;28;20220;-83
2022/03/19 05:25:38;;;;;;;0.20;0.20;;;6.80;99.90;;;;;;5020734;28;20178;-83
2022/03/19 05:28:04;;;;;;;0.27;0.27;;;6.80;99.90;;;;;;5023932;28;20202;-83
2022/03/19 05:30:31;;;;;;;0.20;0.20;;;6.80;99.90;;;;;;5021050;28;20187;-83
2022/03/19 05:32:57;;;;;;;0.30;0.30;;;6.80;99.90;;;;;;5022163;28;20321;-83
2022/03/19 05:35:23;;;;;;;0.47;0.40;;;6.80;99.90;;;;;;5023255;28;20261;-83
2022/03/19 05:37:49;;;;;;;0.10;0.10;;;6.80;99.90;;;;;;5024697;28;20190;-82
2022/03/19 05:40:14;;;;;;;8.23;0.67;;;6.80;99.90;;;;;;5024178;28;20193;-83
2022/03/19 05:42:40;;;;;;;0.03;0.03;;;6.80;99.90;;;;;;5023746;28;20210;-83
2022/03/19 05:45:06;;;;;;;0.10;0.10;;;6.80;99.90;;;;;;5023963;28;20289;-83
2022/03/19 05:47:32;;;;;;;0.30;0.30;;;6.80;99.90;;;;;;5026519;28;20202;-83
2022/03/19 05:49:57;;;;;;;0.10;0.10;;;6.90;99.90;;;;;;5026182;28;20178;-83
2022/03/19 05:52:24;;;;;;;0.50;0.50;;;6.80;99.90;;;;;;5024430;28;20206;-83
2022/03/19 05:54:49;;;;;;;0.83;0.83;;;6.90;99.90;;;;;;5026459;28;20190;-83
2022/03/19 05:57:15;;;;;;;0.20;0.13;;;6.90;99.90;;;;;;5024709;28;20644;-83
2022/03/19 05:59:40;;;;;;;0.20;0.20;;;7.00;99.90;;;;;;5026889;28;20194;-85
2022/03/19 06:02:06;;;;;;;0.57;0.30;;;7.00;99.90;;;;;;5026252;28;20684;-83
2022/03/19 06:04:33;;;;;;;0.27;0.27;;;7.00;99.90;;;;;;5028022;28;20186;-83
2022/03/19 06:06:59;;;;;;;0.47;0.47;;;7.00;99.90;;;;;;5022681;28;20226;-83
2022/03/19 06:09:24;;;;;;;0.37;0.37;;;7.10;99.90;;;;;;5024494;28;20213;-83
2022/03/19 06:11:50;;;;;;;0.43;0.20;;;7.10;99.90;;;;;;5026376;28;20221;-85
2022/03/19 06:14:16;;;;;;;0.40;0.40;;;7.10;99.90;;;;;;5024645;28;20244;-85
2022/03/19 06:16:41;;;;;;;0.10;0.10;;;7.20;99.90;;;;;;5023896;28;20262;-83
2022/03/19 06:19:07;;;;;;;0.13;0.13;;;7.20;99.90;;;;;;5025501;28;20680;-83
2022/03/19 06:21:32;;;;;;;0.40;0.40;;;7.20;99.90;;;;;;5025741;28;20626;-84
2022/03/19 06:23:58;;;;;;;0.23;0.13;;;7.30;99.90;;;;;;5025519;28;20587;-83
2022/03/19 06:26:23;;;;;;;0.30;0.30;;;7.40;99.90;;;;;;5024638;28;20225;-82
2022/03/19 06:28:52;;;;;;;0.10;0.10;;;7.40;99.90;;;;;;5027059;28;20206;-85
2022/03/19 06:31:18;;;;;;;0.57;0.50;;;7.50;99.90;;;;;;5034061;28;20178;-83
2022/03/19 06:33:44;;;;;;;0.10;0.10;;;7.50;99.90;;;;;;5022339;28;20217;-85
2022/03/19 06:38:55;;;;;;;0.10;0.10;;;7.70;99.90;;;;;;5021576;28;20195;-85
2022/03/19 06:41:22;;;;;;;0.37;0.37;;;7.80;99.90;;;;;;5021633;28;20191;-85
2022/03/19 06:43:48;;;;;;;0.47;0.33;;;7.90;99.90;;;;;;5024753;28;20202;-88
2022/03/19 06:46:13;;;;;;;0.23;0.23;;;7.90;99.90;;;;;;5022999;28;20585;-84
2022/03/19 06:48:39;;;;;;;0.10;0.10;;;8.00;99.90;;;;;;5025213;28;20221;-84
2022/03/19 06:51:04;;;;;;;3.10;2.10;;;8.00;99.90;;;;;;5025595;28;20228;-84
2022/03/19 06:53:30;;;;;;;0.10;0.10;;;8.10;99.90;;;;;;5026953;28;20202;-86
2022/03/19 06:55:56;;;;;;;0.20;0.20;;;8.20;99.90;;;;;;5024960;28;20171;-84
2022/03/19 06:58:21;;;;;;;0.60;0.60;;;8.20;99.90;;;;;;5025434;28;20197;-84
2022/03/19 07:00:49;;;;;;;0.10;0.10;;;8.20;99.90;;;;;;5024314;28;20184;-85
2022/03/19 07:03:14;;;;;;;0.30;0.30;;;8.30;99.90;;;;;;5025991;28;20227;-84
2022/03/19 07:05:40;;;;;;;0.37;0.37;;;8.40;99.90;;;;;;5022024;28;20199;-85
2022/03/19 07:08:08;;;;;;;0.30;0.30;;;8.40;99.90;;;;;;5023992;28;20206;-84
2022/03/19 07:10:37;;;;;;;0.33;0.30;;;8.50;99.90;;;;;;5023035;28;20201;-83
2022/03/19 07:13:03;;;;;;;0.93;0.93;;;8.60;99.90;;;;;;5025912;28;20196;-86
2022/03/19 07:15:29;;;;;;;0.80;0.50;;;8.60;99.90;;;;;;5033396;28;20190;-84
2022/03/19 07:18:00;;;;;;;0.10;0.10;;;8.60;99.90;;;;;;5024159;28;20201;-81
2022/03/19 07:20:27;;;;;;;0.47;0.47;;;8.70;99.90;;;;;;5028943;28;20181;-81
2022/03/19 07:23:01;;;;;;;0.20;0.20;;;8.70;99.90;;;;;;5026533;28;20330;-81
2022/03/19 07:25:29;;;;;;;0.33;0.20;;;8.60;99.90;;;;;;5024293;28;20218;-82
2022/03/19 07:27:57;;;;;;;0.10;0.10;;;8.60;99.90;;;;;;5030500;28;20211;-81
2022/03/19 07:30:23;;;;;;;2.10;0.63;;;8.70;99.90;;;;;;5028533;28;20192;-81
2022/03/19 07:32:49;;;;;;;0.43;0.30;;;8.80;99.90;;;;;;5025362;28;20350;-81
2022/03/19 07:35:14;;;;;;;0.23;0.23;;;8.90;99.90;;;;;;5023559;28;20196;-81
2022/03/19 07:37:44;;;;;;;0.30;0.30;;;8.90;99.90;;;;;;5023928;28;20193;-80
2022/03/19 07:40:13;;;;;;;0.73;0.40;;;9.10;99.90;;;;;;5024300;28;20211;-82
2022/03/19 07:42:39;;;;;;;0.60;0.50;;;9.10;99.90;;;;;;5027156;28;20211;-83
2022/03/19 07:45:06;;;;;;;0.20;0.20;;;9.00;99.90;;;;;;5027457;28;20195;-83
2022/03/19 07:47:33;;;;;;;5.83;0.50;;;9.20;99.90;;;;;;5027846;28;20217;-83
2022/03/19 07:49:59;;;;;;;0.10;0.10;;;9.40;99.90;;;;;;5027288;28;20299;-81
2022/03/19 07:52:25;;;;;;;0.70;0.33;;;9.20;99.90;;;;;;5027371;28;20229;-81
2022/03/19 07:54:54;;;;;;;0.40;0.40;;;9.20;99.90;;;;;;5025744;28;20269;-80
2022/03/19 07:57:20;;;;;;;0.53;0.53;;;9.30;99.90;;;;;;5028718;28;20644;-81
2022/03/19 07:59:46;;;;;;;0.63;0.63;;;9.50;99.90;;;;;;5028266;28;20269;-80
2022/03/19 08:02:11;;;;;;;0.17;0.17;;;9.60;99.90;;;;;;5027580;28;20900;-80
2022/03/19 08:04:37;;;;;;;0.20;0.20;;;9.40;99.90;;;;;;5027260;28;20193;-80
2022/03/19 08:07:03;;;;;;;1.33;0.47;;;9.60;99.90;;;;;;5024530;28;20217;-80
2022/03/19 08:09:28;;;;;;;0.20;0.20;;;9.60;99.90;;;;;;5026943;28;20205;-80
2022/03/19 08:11:54;;;;;;;0.40;0.40;;;10.00;99.90;;;;;;5029703;28;20196;-80
2022/03/19 08:14:20;;;;;;;0.43;0.30;;;9.90;99.90;;;;;;5025356;28;20235;-81
2022/03/19 08:16:49;;;;;;;0.30;0.30;;;10.10;99.90;;;;;;5028180;28;20197;-81
2022/03/19 08:19:15;;;;;;;0.23;0.23;;;10.20;99.90;;;;;;5025143;28;20276;-81
2022/03/19 08:21:44;;;;;;;0.30;0.30;;;9.90;99.90;;;;;;5026455;28;20228;-82
2022/03/19 08:24:11;;;;;;;0.50;0.50;;;9.90;99.90;;;;;;5025478;28;20681;-81
2022/03/19 08:26:37;;;;;;;2.00;1.13;;;9.80;99.90;;;;;;5025224;28;20320;-81
2022/03/19 08:29:04;;;;;;;1.13;0.30;;;9.90;99.90;;;;;;5024634;28;20221;-81
2022/03/19 08:31:31;;;;;;;0.30;0.30;;;10.00;99.90;;;;;;5025234;28;20187;-81
2022/03/19 08:33:56;;;;;;;0.30;0.30;;;10.20;99.90;;;;;;5025983;28;20205;-81
2022/03/19 08:36:23;;;;;;;1.37;0.60;;;10.10;99.90;;;;;;5024733;28;20191;-81
2022/03/19 08:41:33;;;;;;;0.37;0.37;;;10.00;99.90;;;;;;5026215;28;20206;-81
2022/03/19 08:43:59;;;;;;;0.30;0.30;;;10.50;99.90;;;;;;5024750;28;20206;-81
2022/03/19 08:46:25;;;;;;;0.10;0.10;;;10.70;99.90;;;;;;5023536;28;20222;-81
2022/03/19 08:48:51;;;;;;;0.23;0.23;;;10.40;99.90;;;;;;5022546;28;20205;-81
2022/03/19 08:54:03;;;;;;;1.03;0.60;;;10.50;99.90;;;;;;5024692;28;20239;-80
2022/03/19 08:56:29;;;;;;;0.23;0.23;;;10.00;99.90;;;;;;5021824;28;20186;-81
2022/03/19 08:58:55;;;;;;;0.57;0.57;;;10.00;99.90;;;;;;5022730;28;20189;-81
2022/03/19 09:01:20;;;;;;;1.03;0.93;;;10.20;99.90;;;;;;5028179;28;20643;-80
2022/03/19 09:03:46;;;;;;;1.73;0.50;;;10.00;99.90;;;;;;5022787;28;20272;-80
2022/03/19 09:06:14;;;;;;;0.10;0.10;;;10.20;99.90;;;;;;5022862;28;20192;-80
2022/03/19 09:08:40;;;;;;;4.43;0.67;;;10.50;99.90;;;;;;5020022;28;20199;-80
2022/03/19 09:11:06;;;;;;;0.93;0.93;;;10.50;99.90;;;;;;5020818;28;20224;-80
2022/03/19 09:13:32;;;;;;;0.40;0.40;;;10.70;99.90;;;;;;5023860;28;20257;-80
2022/03/19 09:15:57;;;;;;;1.17;0.47;;;10.70;99.90;;;;;;5021271;28;21038;-80
2022/03/19 09:18:23;;;;;;;0.83;0.63;;;10.90;99.90;;;;;;5024165;28;20240;-80
2022/03/19 09:20:49;;;;;;;1.13;0.60;;;10.80;99.90;;;;;;5025778;28;20190;-80
2022/03/19 09:23:14;;;;;;;1.30;0.70;;;10.90;99.90;;;;;;5024670;28;21309;-80
2022/03/19 09:25:42;;;;;;;0.37;0.37;;;10.40;99.90;;;;;;5023424;28;20669;-80
2022/03/19 09:28:07;;;;;;;0.93;0.93;;;10.70;99.90;;;;;;5022437;28;20228;-82
2022/03/19 09:30:33;;;;;;;0.23;0.23;;;10.60;99.90;;;;;;5023811;28;20186;-81
2022/03/19 09:33:00;;;;;;;0.30;0.30;;;10.40;99.90;;;;;;5021695;28;20245;-82
2022/03/19 09:35:25;;;;;;;0.40;0.40;;;10.40;99.90;;;;;;5021097;28;20192;-81
2022/03/19 09:37:51;;;;;;;0.10;0.10;;;10.70;99.90;;;;;;5024028;28;20189;-81
2022/03/19 09:40:17;;;;;;;0.43;0.30;;;10.70;99.90;;;;;;5023202;28;20193;-81
2022/03/19 09:42:50;;;;;;;2.87;0.40;;;10.70;99.90;;;;;;5025049;28;20214;-82
2022/03/19 09:45:22;;;;;;;0.57;0.23;;;11.00;99.90;;;;;;5025814;28;20219;-81
2022/03/19 09:47:49;;;;;;;0.33;0.33;;;11.30;99.90;;;;;;5023645;28;20238;-81
2022/03/19 09:50:15;;;;;;;0.40;0.40;;;10.80;99.90;;;;;;5024264;28;21021;-81
2022/03/19 09:52:42;;;;;;;0.40;0.40;;;11.00;99.90;;;;;;5026584;28;20194;-81
2022/03/19 09:55:14;;;;;;;0.63;0.63;;;11.00;99.90;;;;;;5024068;28;22239;-81
2022/03/19 09:57:39;;;;;;;0.60;0.60;;;10.90;99.90;;;;;;5021540;28;20191;-82
2022/03/19 10:00:06;;;;;;;0.63;0.43;;;11.10;99.90;;;;;;5026609;28;20660;-81
2022/03/19 10:02:31;;;;;;;0.30;0.30;;;11.30;99.90;;;;;;5025621;28;20210;-81
2022/03/19 10:04:57;;;;;;;0.30;0.30;;;11.20;99.90;;;;;;5025467;28;20194;-81
2022/03/19 10:10:09;;;;;;;0.50;0.50;;;11.10;99.90;;;;;;5025521;28;20203;-81
2022/03/19 10:12:36;;;;;;;0.87;0.40;;;11.40;99.90;;;;;;5022646;28;20216;-82
2022/03/19 10:15:09;;;;;;;1.97;0.60;;;11.30;99.90;;;;;;5025779;28;20229;-82
2022/03/19 10:17:36;;;;;;;2.00;0.50;;;11.20;99.90;;;;;;5022060;28;20660;-82
2022/03/19 10:20:11;;;;;;;0.97;0.37;;;11.20;99.90;;;;;;5022610;28;20635;-82
2022/03/19 10:22:46;;;;;;;0.80;0.80;;;11.30;99.90;;;;;;5028493;28;20213;-81
2022/03/19 10:25:14;;;;;;;0.40;0.40;;;11.30;99.90;;;;;;5028523;28;20189;-81
2022/03/19 10:27:41;;;;;;;0.37;0.37;;;11.50;99.90;;;;;;5027493;28;20317;-82
2022/03/19 10:30:16;;;;;;;0.30;0.30;;;11.50;99.90;;;;;;5025943;28;20285;-81
2022/03/19 10:32:44;;;;;;;0.47;0.47;;;11.30;99.90;;;;;;5027105;28;20202;-81
2022/03/19 10:35:42;;;;;;;0.60;0.30;;;11.30;99.90;;;;;;5027687;28;20230;-81
2022/03/19 10:38:22;;;;;;;1.20;1.03;;;11.40;99.90;;;;;;5010835;28;20198;-82
2022/03/19 10:40:51;;;;;;;1.53;1.43;;;11.30;99.90;;;;;;5026409;28;20182;-81
2022/03/19 10:43:19;;;;;;;3.60;0.83;;;11.50;99.90;;;;;;5029783;28;20683;-81
2022/03/19 10:45:49;;;;;;;0.37;0.30;;;11.50;99.90;;;;;;5027995;28;20694;-81
2022/03/19 10:48:23;;;;;;;2.57;0.60;;;11.60;99.90;;;;;;5027341;28;20201;-82
2022/03/19 10:50:50;;;;;;;0.40;0.40;;;11.60;99.90;;;;;;5027503;28;20594;-81
2022/03/19 10:53:17;;;;;;;1.83;0.50;;;11.70;99.90;;;;;;5029442;28;20210;-81
2022/03/19 10:55:43;;;;;;;0.50;0.40;;;11.40;99.90;;;;;;5026682;28;20636;-81
2022/03/19 10:58:10;;;;;;;0.93;0.53;;;11.60;99.90;;;;;;5026719;28;20492;-82
2022/03/19 11:00:36;;;;;;;1.03;0.97;;;11.40;99.90;;;;;;5028029;28;20682;-82
2022/03/19 11:03:15;;;;;;;0.83;0.80;;;12.00;99.90;;;;;;5029713;28;20362;-82
2022/03/19 11:05:42;;;;;;;0.20;0.20;;;11.70;99.90;;;;;;5027468;28;20311;-81
2022/03/19 11:08:07;;;;;;;0.63;0.60;;;11.60;99.90;;;;;;5026600;28;22026;-81
2022/03/19 11:10:35;;;;;;;0.33;0.33;;;11.50;99.90;;;;;;5029004;28;20228;-81
2022/03/19 11:13:03;;;;;;;0.40;0.40;;;11.80;99.90;;;;;;5026634;28;20205;-81
2022/03/19 11:15:34;;;;;;;1.37;0.50;;;12.10;99.90;;;;;;5027954;28;20210;-81
2022/03/19 11:18:03;;;;;;;0.63;0.40;;;12.30;99.90;;;;;;5026983;28;20193;-81
2022/03/19 11:20:30;;;;;;;0.30;0.30;;;12.70;99.90;;;;;;5025510;28;20190;-82
2022/03/19 11:22:58;;;;;;;1.03;0.63;;;12.70;99.90;;;;;;5024026;28;20214;-82
2022/03/19 11:25:27;;;;;;;3.77;0.47;;;12.20;99.90;;;;;;5025637;28;20218;-81
2022/03/19 11:28:02;;;;;;;0.10;0.10;;;12.70;99.90;;;;;;5022235;28;20229;-82
2022/03/19 11:30:30;;;;;;;0.33;0.33;;;12.90;99.90;;;;;;5025971;28;20247;-81
2022/03/19 11:33:06;;;;;;;0.30;0.30;;;12.60;99.90;;;;;;5031632;28;20627;-82
2022/03/19 11:35:38;;;;;;;0.20;0.20;;;12.70;99.90;;;;;;5023625;28;20593;-82
2022/03/19 11:38:11;;;;;;;1.60;0.30;;;12.50;99.90;;;;;;5023451;28;20240;-81
2022/03/19 11:40:42;;;;;;;0.60;0.40;;;12.40;99.90;;;;;;5022563;28;20612;-82
2022/03/19 11:43:09;;;;;;;0.13;0.13;;;12.50;99.90;;;;;;5020402;28;20210;-81
2022/03/19 11:45:58;;;;;;;0.10;0.10;;;12.60;99.90;;;;;;5022126;28;20198;-82
2022/03/19 11:48:38;;;;;;;0.83;0.50;;;12.70;99.90;;;;;;5042677;28;20289;-81
2022/03/19 11:51:41;;;;;;;0.43;0.43;;;12.60;99.90;;;;;;5037553;28;20241;-81
2022/03/19 11:54:12;;;;;;;0.20;0.20;;;12.60;99.90;;;;;;5030834;28;20210;-81
2022/03/19 11:56:40;;;;;;;0.30;0.30;;;12.50;99.90;;;;;;5036535;28;20186;-82
2022/03/19 11:59:27;;;;;;;0.20;0.20;;;12.90;99.90;;;;;;5032980;28;20205;-81
2022/03/19 12:02:02;;;;;;;0.10;0.10;;;12.60;99.90;;;;;;5020936;28;20194;-81
2022/03/19 12:04:44;;;;;;;0.10;0.10;;;12.60;99.90;;;;;;5026757;28;20256;-81
2022/03/19 12:07:11;;;;;;;3.20;0.40;;;12.40;99.90;;;;;;5025261;28;20213;-81
2022/03/19 12:09:39;;;;;;;0.43;0.17;;;12.40;99.90;;;;;;5027480;28;20191;-81
2022/03/19 12:12:23;;;;;;;0.10;0.10;;;12.60;99.90;;;;;;5028316;28;20193;-81
2022/03/19 12:14:50;;;;;;;0.10;0.10;;;12.50;99.90;;;;;;5025513;28;20216;-81
2022/03/19 12:17:29;;;;;;;0.20;0.20;;;12.80;99.90;;;;;;5023853;28;20170;-81
2022/03/19 12:19:59;;;;;;;0.10;0.10;;;13.00;99.90;;;;;;5021932;28;20609;-82
2022/03/19 12:22:36;;;;;;;0.23;0.23;;;13.00;99.90;;;;;;5021926;28;20208;-80
2022/03/19 12:25:23;;;;;;;0.17;0.17;;;12.60;99.90;;;;;;5030601;28;20189;-83
2022/03/19 12:27:57;;;;;;;0.20;0.17;;;12.70;99.90;;;;;;5021588;28;20215;-83
2022/03/19 12:30:25;;;;;;;0.40;0.30;;;12.70;99.90;;;;;;5023273;28;20179;-83
2022/03/19 12:32:58;;;;;;;0.20;0.20;;;12.50;99.90;;;;;;5025491;28;20191;-83
2022/03/19 12:35:39;;;;;;;0.20;0.20;;;12.50;99.90;;;;;;5028283;28;20179;-81
2022/03/19 12:38:05;;;;;;;0.10;0.10;;;12.60;99.90;;;;;;5026688;28;20178;-80
2022/03/19 12:43:18;;;;;;;0.10;0.10;;;12.60;99.90;;;;;;5026595;28;20232;-80
2022/03/19 12:45:51;;;;;;;0.30;0.30;;;12.60;99.90;;;;;;5028979;28;20186;-80
2022/03/19 12:48:19;;;;;;;0.20;0.20;;;12.60;99.90;;;;;;5033353;28;20656;-80
2022/03/19 12:50:56;;;;;;;0.30;0.20;;;12.90;99.90;;;;;;5032088;28;20187;-80
2022/03/19 12:53:35;;;;;;;0.20;0.20;;;12.70;99.90;;;;;;5025463;28;20202;-80
2022/03/19 12:56:20;;;;;;;0.10;0.10;;;12.70;99.90;;;;;;5025672;28;20179;-79
2022/03/19 12:58:51;;;;;;;0.20;0.20;;;12.50;99.90;;;;;;5018325;28;20215;-80
2022/03/19 13:01:19;;;;;;;0.50;0.50;;;12.40;99.90;;;;;;5023059;28;20187;-81
2022/03/19 13:03:45;;;;;;;0.40;0.40;;;12.30;99.90;;;;;;5023944;28;20683;-81
2022/03/19 13:06:14;;;;;;;0.93;0.17;;;12.60;99.90;;;;;;5020513;28;20205;-80
2022/03/19 13:08:47;;;;;;;0.10;0.10;;;12.50;99.90;;;;;;5027779;28;20209;-79
2022/03/19 13:11:14;;;;;;;0.30;0.23;;;12.60;99.90;;;;;;5027751;28;20182;-80
2022/03/19 13:13:42;;;;;;;0.20;0.20;;;12.50;99.90;;;;;;5034469;28;20240;-80
2022/03/19 13:16:08;;;;;;;0.47;0.27;;;12.30;99.90;;;;;;5023141;28;20299;-80